sensor_id;sensor_type;location;lat;lon;timestamp;temperature;humidity
2453;DHT22;63678;47.994;7.854;2024-02-14T00:00:39;6.40;99.90
2453;DHT22;63678;47.994;7.854;2024-02-14T00:05:46;6.70;99.90
2453;DHT22;63678;47.994;7.854;2024-02-14T00:08:18;6.90;99.90
2453;DHT22;63678;47.994;7.854;2024-02-14T00:10:50;6.90;99.90
2453;DHT22;63678;47.994;7.854;2024-02-14T00:13:23;7.30;99.90
2453;DHT22;63678;47.994;7.854;2024-02-14T00:15:55;7.20;99.90
2453;DHT22;63678;47.994;7.854;2024-02-14T00:18:28;7.20;99.90
2453;DHT22;63678;47.994;7.854;2024-02-14T00:21:01;7.00;99.90
2453;DHT22;63678;47.994;7.854;2024-02-14T00:23:34;6.90;99.90
2453;DHT22;63678;47.994;7.854;2024-02-14T00:26:06;6.90;99.90
2453;DHT22;63678;47.994;7.854;2024-02-14T00:28:38;6.80;99.90
2453;DHT22;63678;47.994;7.854;2024-02-14T00:31:11;6.80;99.90
2453;DHT22;63678;47.994;7.854;2024-02-14T00:33:43;6.80;99.90
2453;DHT22;63678;47.994;7.854;2024-02-14T00:36:17;6.90;99.90
2453;DHT22;63678;47.994;7.854;2024-02-14T00:38:49;8.10;99.90
2453;DHT22;63678;47.994;7.854;2024-02-14T00:41:23;6.80;99.90
2453;DHT22;63678;47.994;7.854;2024-02-14T00:43:56;6.80;99.90
2453;DHT22;63678;47.994;7.854;2024-02-14T00:46:29;6.80;99.90
2453;DHT22;63678;47.994;7.854;2024-02-14T00:49:01;6.80;99.90
2453;DHT22;63678;47.994;7.854;2024-02-14T00:51:34;7.10;99.90
2453;DHT22;63678;47.994;7.854;2024-02-14T00:54:07;7.20;99.90
2453;DHT22;63678;47.994;7.854;2024-02-14T00:56:40;7.40;99.90
2453;DHT22;63678;47.994;7.854;2024-02-14T00:59:12;7.20;99.90
2453;DHT22;63678;47.994;7.854;2024-02-14T01:01:44;7.40;99.90
2453;DHT22;63678;47.994;7.854;2024-02-14T01:04:17;7.80;99.90
2453;DHT22;63678;47.994;7.854;2024-02-14T01:06:49;7.80;99.90
2453;DHT22;63678;47.994;7.854;2024-02-14T01:09:23;7.80;99.90
2453;DHT22;63678;47.994;7.854;2024-02-14T01:11:55;7.90;99.90
2453;DHT22;63678;47.994;7.854;2024-02-14T01:14:28;7.90;99.90
2453;DHT22;63678;47.994;7.854;2024-02-14T01:17:00;8.40;99.90
2453;DHT22;63678;47.994;7.854;2024-02-14T01:19:32;8.40;99.90
2453;DHT22;63678;47.994;7.854;2024-02-14T01:22:05;9.00;99.90
2453;DHT22;63678;47.994;7.854;2024-02-14T01:24:38;9.30;99.90
2453;DHT22;63678;47.994;7.854;2024-02-14T01:27:11;9.30;99.90
2453;DHT22;63678;47.994;7.854;2024-02-14T01:29:43;9.50;99.90
2453;DHT22;63678;47.994;7.854;2024-02-14T01:32:15;9.80;99.90
2453;DHT22;63678;47.994;7.854;2024-02-14T01:34:49;9.90;99.90
2453;DHT22;63678;47.994;7.854;2024-02-14T01:37:21;10.00;99.90
2453;DHT22;63678;47.994;7.854;2024-02-14T01:39:53;10.00;99.90
2453;DHT22;63678;47.994;7.854;2024-02-14T01:42:25;10.00;99.90
2453;DHT22;63678;47.994;7.854;2024-02-14T01:44:59;10.10;99.90
2453;DHT22;63678;47.994;7.854;2024-02-14T01:47:32;10.20;99.90
2453;DHT22;63678;47.994;7.854;2024-02-14T01:50:05;10.20;99.90
2453;DHT22;63678;47.994;7.854;2024-02-14T01:52:41;10.10;99.90
2453;DHT22;63678;47.994;7.854;2024-02-14T01:55:16;10.10;99.90
2453;DHT22;63678;47.994;7.854;2024-02-14T01:57:48;10.20;99.90
2453;DHT22;63678;47.994;7.854;2024-02-14T02:00:21;10.10;99.90
2453;DHT22;63678;47.994;7.854;2024-02-14T02:02:53;10.10;99.90
2453;DHT22;63678;47.994;7.854;2024-02-14T02:05:27;10.30;99.90
2453;DHT22;63678;47.994;7.854;2024-02-14T02:08:00;10.40;99.90
2453;DHT22;63678;47.994;7.854;2024-02-14T02:10:33;10.40;99.90
2453;DHT22;63678;47.994;7.854;2024-02-14T02:13:05;10.40;99.90
2453;DHT22;63678;47.994;7.854;2024-02-14T02:15:37;10.40;99.90
2453;DHT22;63678;47.994;7.854;2024-02-14T02:18:09;10.50;99.90
2453;DHT22;63678;47.994;7.854;2024-02-14T02:20:42;10.50;99.90
2453;DHT22;63678;47.994;7.854;2024-02-14T02:23:17;10.50;99.90
2453;DHT22;63678;47.994;7.854;2024-02-14T02:28:22;10.60;99.90
2453;DHT22;63678;47.994;7.854;2024-02-14T02:30:54;10.60;99.90
2453;DHT22;63678;47.994;7.854;2024-02-14T02:33:27;10.60;99.90
2453;DHT22;63678;47.994;7.854;2024-02-14T02:36:00;10.70;99.90
2453;DHT22;63678;47.994;7.854;2024-02-14T02:38:32;10.70;99.90
2453;DHT22;63678;47.994;7.854;2024-02-14T02:41:04;10.80;99.90
2453;DHT22;63678;47.994;7.854;2024-02-14T02:43:40;10.80;99.90
2453;DHT22;63678;47.994;7.854;2024-02-14T02:46:12;10.80;99.90
2453;DHT22;63678;47.994;7.854;2024-02-14T02:48:44;10.90;99.90
2453;DHT22;63678;47.994;7.854;2024-02-14T02:51:19;10.80;99.90
2453;DHT22;63678;47.994;7.854;2024-02-14T02:53:52;10.90;99.90
2453;DHT22;63678;47.994;7.854;2024-02-14T02:56:24;10.90;99.90
2453;DHT22;63678;47.994;7.854;2024-02-14T02:58:59;10.90;99.90
2453;DHT22;63678;47.994;7.854;2024-02-14T03:01:37;10.90;99.90
2453;DHT22;63678;47.994;7.854;2024-02-14T03:04:10;10.90;99.90
2453;DHT22;63678;47.994;7.854;2024-02-14T03:06:42;10.90;99.90
2453;DHT22;63678;47.994;7.854;2024-02-14T03:14:23;10.90;99.90
2453;DHT22;63678;47.994;7.854;2024-02-14T03:16:55;11.00;99.90
2453;DHT22;63678;47.994;7.854;2024-02-14T03:19:28;11.00;99.90
2453;DHT22;63678;47.994;7.854;2024-02-14T03:22:01;11.10;99.90
2453;DHT22;63678;47.994;7.854;2024-02-14T03:24:37;11.00;99.90
2453;DHT22;63678;47.994;7.854;2024-02-14T03:27:09;11.10;99.90
2453;DHT22;63678;47.994;7.854;2024-02-14T03:29:42;11.10;99.90
2453;DHT22;63678;47.994;7.854;2024-02-14T03:32:16;11.10;99.90
2453;DHT22;63678;47.994;7.854;2024-02-14T03:34:49;11.10;99.90
2453;DHT22;63678;47.994;7.854;2024-02-14T03:37:21;11.20;99.90
2453;DHT22;63678;47.994;7.854;2024-02-14T03:39:53;11.20;99.90
2453;DHT22;63678;47.994;7.854;2024-02-14T03:42:25;11.20;99.90
2453;DHT22;63678;47.994;7.854;2024-02-14T03:44:58;11.20;99.90
2453;DHT22;63678;47.994;7.854;2024-02-14T03:47:35;11.20;99.90
2453;DHT22;63678;47.994;7.854;2024-02-14T03:50:09;11.20;99.90
2453;DHT22;63678;47.994;7.854;2024-02-14T03:52:41;11.20;99.90
2453;DHT22;63678;47.994;7.854;2024-02-14T03:57:49;11.20;99.90
2453;DHT22;63678;47.994;7.854;2024-02-14T04:00:22;11.20;99.90
2453;DHT22;63678;47.994;7.854;2024-02-14T04:05:31;11.20;99.90
2453;DHT22;63678;47.994;7.854;2024-02-14T04:08:03;11.20;99.90
2453;DHT22;63678;47.994;7.854;2024-02-14T04:10:37;11.20;99.90
2453;DHT22;63678;47.994;7.854;2024-02-14T04:13:09;11.20;99.90
2453;DHT22;63678;47.994;7.854;2024-02-14T04:15:42;11.20;99.90
2453;DHT22;63678;47.994;7.854;2024-02-14T04:18:14;11.20;99.90
2453;DHT22;63678;47.994;7.854;2024-02-14T04:20:48;11.20;99.90
2453;DHT22;63678;47.994;7.854;2024-02-14T04:23:20;11.20;99.90
2453;DHT22;63678;47.994;7.854;2024-02-14T04:25:54;11.30;99.90
2453;DHT22;63678;47.994;7.854;2024-02-14T04:28:26;11.30;99.90
2453;DHT22;63678;47.994;7.854;2024-02-14T04:30:58;11.40;99.90
2453;DHT22;63678;47.994;7.854;2024-02-14T04:33:31;11.40;99.90
2453;DHT22;63678;47.994;7.854;2024-02-14T04:36:03;11.40;99.90
2453;DHT22;63678;47.994;7.854;2024-02-14T04:38:38;11.50;99.90
2453;DHT22;63678;47.994;7.854;2024-02-14T04:41:10;11.60;99.90
2453;DHT22;63678;47.994;7.854;2024-02-14T04:43:42;11.60;99.90
2453;DHT22;63678;47.994;7.854;2024-02-14T04:46:15;11.60;99.90
2453;DHT22;63678;47.994;7.854;2024-02-14T04:48:48;11.60;99.90
2453;DHT22;63678;47.994;7.854;2024-02-14T04:51:20;11.60;99.90
2453;DHT22;63678;47.994;7.854;2024-02-14T04:53:52;11.60;99.90
2453;DHT22;63678;47.994;7.854;2024-02-14T04:56:26;11.60;99.90
2453;DHT22;63678;47.994;7.854;2024-02-14T04:58:59;11.60;99.90
2453;DHT22;63678;47.994;7.854;2024-02-14T05:01:31;11.70;99.90
2453;DHT22;63678;47.994;7.854;2024-02-14T05:04:03;11.70;99.90
2453;DHT22;63678;47.994;7.854;2024-02-14T05:06:36;11.80;99.90
2453;DHT22;63678;47.994;7.854;2024-02-14T05:11:43;11.80;99.90
2453;DHT22;63678;47.994;7.854;2024-02-14T05:14:15;11.80;99.90
2453;DHT22;63678;47.994;7.854;2024-02-14T05:16:48;11.80;99.90
2453;DHT22;63678;47.994;7.854;2024-02-14T05:19:20;11.90;99.90
2453;DHT22;63678;47.994;7.854;2024-02-14T05:21:54;12.00;99.90
2453;DHT22;63678;47.994;7.854;2024-02-14T05:24:26;12.00;99.90
2453;DHT22;63678;47.994;7.854;2024-02-14T05:29:36;12.00;99.90
2453;DHT22;63678;47.994;7.854;2024-02-14T05:32:08;12.10;99.90
2453;DHT22;63678;47.994;7.854;2024-02-14T05:34:41;12.10;99.90
2453;DHT22;63678;47.994;7.854;2024-02-14T05:37:14;12.10;99.90
2453;DHT22;63678;47.994;7.854;2024-02-14T05:42:19;12.10;99.90
2453;DHT22;63678;47.994;7.854;2024-02-14T05:49:57;12.10;99.90
2453;DHT22;63678;47.994;7.854;2024-02-14T05:52:30;12.10;99.90
2453;DHT22;63678;47.994;7.854;2024-02-14T05:55:02;12.20;99.90
2453;DHT22;63678;47.994;7.854;2024-02-14T06:00:08;12.10;99.90
2453;DHT22;63678;47.994;7.854;2024-02-14T06:02:43;12.10;99.90
2453;DHT22;63678;47.994;7.854;2024-02-14T06:05:16;12.20;99.90
2453;DHT22;63678;47.994;7.854;2024-02-14T06:07:48;12.20;99.90
2453;DHT22;63678;47.994;7.854;2024-02-14T06:10:21;12.20;99.90
2453;DHT22;63678;47.994;7.854;2024-02-14T06:12:53;12.20;99.90
2453;DHT22;63678;47.994;7.854;2024-02-14T06:20:30;12.30;99.90
2453;DHT22;63678;47.994;7.854;2024-02-14T06:23:03;12.20;99.90
2453;DHT22;63678;47.994;7.854;2024-02-14T06:25:37;12.20;99.90
2453;DHT22;63678;47.994;7.854;2024-02-14T06:28:09;12.20;99.90
2453;DHT22;63678;47.994;7.854;2024-02-14T06:30:41;12.20;99.90
2453;DHT22;63678;47.994;7.854;2024-02-14T06:33:13;12.30;99.90
2453;DHT22;63678;47.994;7.854;2024-02-14T06:35:46;12.20;99.90
2453;DHT22;63678;47.994;7.854;2024-02-14T06:38:18;12.20;99.90
2453;DHT22;63678;47.994;7.854;2024-02-14T06:40:51;12.20;99.90
2453;DHT22;63678;47.994;7.854;2024-02-14T06:43:23;12.20;99.90
2453;DHT22;63678;47.994;7.854;2024-02-14T06:48:28;12.20;99.90
2453;DHT22;63678;47.994;7.854;2024-02-14T06:51:01;12.20;99.90
2453;DHT22;63678;47.994;7.854;2024-02-14T06:53:33;12.20;99.90
2453;DHT22;63678;47.994;7.854;2024-02-14T06:56:06;12.20;99.90
2453;DHT22;63678;47.994;7.854;2024-02-14T06:58:38;12.20;99.90
2453;DHT22;63678;47.994;7.854;2024-02-14T07:01:11;12.20;99.90
2453;DHT22;63678;47.994;7.854;2024-02-14T07:03:45;12.10;99.90
2453;DHT22;63678;47.994;7.854;2024-02-14T07:08:51;12.20;99.90
2453;DHT22;63678;47.994;7.854;2024-02-14T07:11:23;12.20;99.90
2453;DHT22;63678;47.994;7.854;2024-02-14T07:13:56;12.20;99.90
2453;DHT22;63678;47.994;7.854;2024-02-14T07:16:28;12.20;99.90
2453;DHT22;63678;47.994;7.854;2024-02-14T07:19:01;12.20;99.90
2453;DHT22;63678;47.994;7.854;2024-02-14T07:21:34;12.30;99.90
2453;DHT22;63678;47.994;7.854;2024-02-14T07:24:06;12.30;99.90
2453;DHT22;63678;47.994;7.854;2024-02-14T07:29:13;12.30;99.90
2453;DHT22;63678;47.994;7.854;2024-02-14T07:31:45;12.30;99.90
2453;DHT22;63678;47.994;7.854;2024-02-14T07:34:17;12.20;99.90
2453;DHT22;63678;47.994;7.854;2024-02-14T07:41:55;12.10;99.90
2453;DHT22;63678;47.994;7.854;2024-02-14T07:44:29;11.90;99.90
2453;DHT22;63678;47.994;7.854;2024-02-14T07:47:02;12.00;99.90
2453;DHT22;63678;47.994;7.854;2024-02-14T07:49:39;12.00;99.90
2453;DHT22;63678;47.994;7.854;2024-02-14T07:52:12;11.90;99.90
2453;DHT22;63678;47.994;7.854;2024-02-14T07:54:44;11.90;99.90
2453;DHT22;63678;47.994;7.854;2024-02-14T07:57:15;11.80;99.90
2453;DHT22;63678;47.994;7.854;2024-02-14T08:04:59;11.90;99.90
2453;DHT22;63678;47.994;7.854;2024-02-14T08:10:05;11.70;99.90
2453;DHT22;63678;47.994;7.854;2024-02-14T08:12:37;11.70;99.90
2453;DHT22;63678;47.994;7.854;2024-02-14T08:15:09;11.70;99.90
2453;DHT22;63678;47.994;7.854;2024-02-14T08:17:42;11.70;99.90
2453;DHT22;63678;47.994;7.854;2024-02-14T08:22:50;11.70;99.90
2453;DHT22;63678;47.994;7.854;2024-02-14T08:25:23;11.60;99.90
2453;DHT22;63678;47.994;7.854;2024-02-14T08:27:56;11.70;99.90
2453;DHT22;63678;47.994;7.854;2024-02-14T08:30:28;11.80;99.90
2453;DHT22;63678;47.994;7.854;2024-02-14T08:33:01;11.70;99.90
2453;DHT22;63678;47.994;7.854;2024-02-14T08:35:33;11.60;99.90
2453;DHT22;63678;47.994;7.854;2024-02-14T08:43:19;11.40;99.90
2453;DHT22;63678;47.994;7.854;2024-02-14T08:45:51;11.50;99.90
2453;DHT22;63678;47.994;7.854;2024-02-14T08:53:32;11.50;99.90
2453;DHT22;63678;47.994;7.854;2024-02-14T08:56:04;11.50;99.90
2453;DHT22;63678;47.994;7.854;2024-02-14T08:58:37;11.60;99.90
2453;DHT22;63678;47.994;7.854;2024-02-14T09:01:09;11.70;99.90
2453;DHT22;63678;47.994;7.854;2024-02-14T09:03:46;11.60;99.90
2453;DHT22;63678;47.994;7.854;2024-02-14T09:08:54;11.70;99.90
2453;DHT22;63678;47.994;7.854;2024-02-14T09:13:59;11.70;99.90
2453;DHT22;63678;47.994;7.854;2024-02-14T09:16:36;11.70;99.90
2453;DHT22;63678;47.994;7.854;2024-02-14T09:19:09;11.70;99.90
2453;DHT22;63678;47.994;7.854;2024-02-14T09:21:44;11.70;99.90
2453;DHT22;63678;47.994;7.854;2024-02-14T09:24:17;11.80;99.90
2453;DHT22;63678;47.994;7.854;2024-02-14T09:26:49;11.80;99.90
2453;DHT22;63678;47.994;7.854;2024-02-14T09:29:21;12.10;99.90
2453;DHT22;63678;47.994;7.854;2024-02-14T09:31:54;12.20;99.90
2453;DHT22;63678;47.994;7.854;2024-02-14T09:34:26;12.40;99.90
2453;DHT22;63678;47.994;7.854;2024-02-14T09:36:59;12.20;99.90
2453;DHT22;63678;47.994;7.854;2024-02-14T09:39:31;12.30;99.90
2453;DHT22;63678;47.994;7.854;2024-02-14T09:42:08;12.20;99.90
2453;DHT22;63678;47.994;7.854;2024-02-14T09:44:43;12.30;99.90
2453;DHT22;63678;47.994;7.854;2024-02-14T09:47:17;12.40;99.90
2453;DHT22;63678;47.994;7.854;2024-02-14T09:49:52;12.40;99.90
2453;DHT22;63678;47.994;7.854;2024-02-14T09:54:58;12.70;99.90
2453;DHT22;63678;47.994;7.854;2024-02-14T09:57:31;12.70;99.90
2453;DHT22;63678;47.994;7.854;2024-02-14T10:00:04;12.70;99.90
2453;DHT22;63678;47.994;7.854;2024-02-14T10:02:37;12.80;99.90
2453;DHT22;63678;47.994;7.854;2024-02-14T10:05:10;12.90;99.90
2453;DHT22;63678;47.994;7.854;2024-02-14T10:07:44;12.90;99.90
2453;DHT22;63678;47.994;7.854;2024-02-14T10:15:22;12.90;99.90
2453;DHT22;63678;47.994;7.854;2024-02-14T10:17:54;13.00;99.90
2453;DHT22;63678;47.994;7.854;2024-02-14T10:20:27;13.00;99.90
2453;DHT22;63678;47.994;7.854;2024-02-14T10:23:03;13.10;99.90
2453;DHT22;63678;47.994;7.854;2024-02-14T10:25:36;13.40;99.90
2453;DHT22;63678;47.994;7.854;2024-02-14T10:28:09;13.40;99.90
2453;DHT22;63678;47.994;7.854;2024-02-14T10:30:45;13.40;99.90
2453;DHT22;63678;47.994;7.854;2024-02-14T10:33:18;13.30;99.90
2453;DHT22;63678;47.994;7.854;2024-02-14T10:35:59;13.20;99.90
2453;DHT22;63678;47.994;7.854;2024-02-14T10:38:35;13.30;99.90
2453;DHT22;63678;47.994;7.854;2024-02-14T10:41:07;13.50;99.90
2453;DHT22;63678;47.994;7.854;2024-02-14T10:43:42;13.40;99.90
2453;DHT22;63678;47.994;7.854;2024-02-14T10:46:20;13.30;99.90
2453;DHT22;63678;47.994;7.854;2024-02-14T10:48:58;13.30;99.90
2453;DHT22;63678;47.994;7.854;2024-02-14T10:51:35;13.40;99.90
2453;DHT22;63678;47.994;7.854;2024-02-14T10:54:11;13.50;99.90
2453;DHT22;63678;47.994;7.854;2024-02-14T10:56:49;13.60;99.90
2453;DHT22;63678;47.994;7.854;2024-02-14T10:59:25;13.70;99.90
2453;DHT22;63678;47.994;7.854;2024-02-14T11:01:58;13.70;99.90
2453;DHT22;63678;47.994;7.854;2024-02-14T11:04:30;14.00;99.90
2453;DHT22;63678;47.994;7.854;2024-02-14T11:07:03;14.10;99.90
2453;DHT22;63678;47.994;7.854;2024-02-14T11:09:41;14.00;99.90
2453;DHT22;63678;47.994;7.854;2024-02-14T11:12:14;13.90;99.90
2453;DHT22;63678;47.994;7.854;2024-02-14T11:14:47;14.00;99.90
2453;DHT22;63678;47.994;7.854;2024-02-14T11:17:20;13.80;99.90
2453;DHT22;63678;47.994;7.854;2024-02-14T11:19:58;13.80;99.90
2453;DHT22;63678;47.994;7.854;2024-02-14T11:22:34;13.80;99.90
2453;DHT22;63678;47.994;7.854;2024-02-14T11:25:07;13.40;99.90
2453;DHT22;63678;47.994;7.854;2024-02-14T11:27:47;13.60;99.90
2453;DHT22;63678;47.994;7.854;2024-02-14T11:30:34;13.80;99.90
2453;DHT22;63678;47.994;7.854;2024-02-14T11:33:17;13.90;99.90
2453;DHT22;63678;47.994;7.854;2024-02-14T11:35:52;14.00;99.90
2453;DHT22;63678;47.994;7.854;2024-02-14T11:38:25;14.10;99.90
2453;DHT22;63678;47.994;7.854;2024-02-14T11:40:58;14.10;99.90
2453;DHT22;63678;47.994;7.854;2024-02-14T11:43:30;13.90;99.90
2453;DHT22;63678;47.994;7.854;2024-02-14T11:46:24;14.00;99.90
2453;DHT22;63678;47.994;7.854;2024-02-14T11:51:30;14.10;99.90
2453;DHT22;63678;47.994;7.854;2024-02-14T11:54:05;14.10;99.90
2453;DHT22;63678;47.994;7.854;2024-02-14T11:59:12;14.00;99.90
2453;DHT22;63678;47.994;7.854;2024-02-14T12:01:47;14.10;99.90
2453;DHT22;63678;47.994;7.854;2024-02-14T12:04:20;14.20;99.90
2453;DHT22;63678;47.994;7.854;2024-02-14T12:06:53;14.20;99.90
2453;DHT22;63678;47.994;7.854;2024-02-14T12:09:26;14.50;99.90
2453;DHT22;63678;47.994;7.854;2024-02-14T12:14:35;14.30;99.90
2453;DHT22;63678;47.994;7.854;2024-02-14T12:17:07;14.40;99.90
2453;DHT22;63678;47.994;7.854;2024-02-14T12:19:40;14.40;99.90
2453;DHT22;63678;47.994;7.854;2024-02-14T12:22:13;14.40;99.90
2453;DHT22;63678;47.994;7.854;2024-02-14T12:24:50;14.60;99.90
2453;DHT22;63678;47.994;7.854;2024-02-14T12:27:32;14.70;99.90
2453;DHT22;63678;47.994;7.854;2024-02-14T12:30:06;14.90;99.90
2453;DHT22;63678;47.994;7.854;2024-02-14T12:32:40;14.90;99.90
2453;DHT22;63678;47.994;7.854;2024-02-14T12:35:12;15.00;99.90
2453;DHT22;63678;47.994;7.854;2024-02-14T12:40:18;15.60;99.90
2453;DHT22;63678;47.994;7.854;2024-02-14T12:45:22;15.90;99.90
2453;DHT22;63678;47.994;7.854;2024-02-14T12:47:55;16.10;99.90
2453;DHT22;63678;47.994;7.854;2024-02-14T12:50:30;15.70;99.90
2453;DHT22;63678;47.994;7.854;2024-02-14T12:53:07;15.60;99.90
2453;DHT22;63678;47.994;7.854;2024-02-14T12:55:40;15.60;99.90
2453;DHT22;63678;47.994;7.854;2024-02-14T12:58:13;15.50;99.90
2453;DHT22;63678;47.994;7.854;2024-02-14T13:00:45;15.80;99.90
2453;DHT22;63678;47.994;7.854;2024-02-14T13:05:52;15.50;99.90
2453;DHT22;63678;47.994;7.854;2024-02-14T13:08:26;15.40;99.90
2453;DHT22;63678;47.994;7.854;2024-02-14T13:13:31;15.30;99.90
2453;DHT22;63678;47.994;7.854;2024-02-14T13:16:04;15.60;99.90
2453;DHT22;63678;47.994;7.854;2024-02-14T13:18:38;15.40;99.90
2453;DHT22;63678;47.994;7.854;2024-02-14T13:21:12;15.20;99.90
2453;DHT22;63678;47.994;7.854;2024-02-14T13:23:45;15.20;99.90
2453;DHT22;63678;47.994;7.854;2024-02-14T13:26:17;15.20;99.90
2453;DHT22;63678;47.994;7.854;2024-02-14T13:28:50;15.00;99.90
2453;DHT22;63678;47.994;7.854;2024-02-14T13:31:22;15.00;99.90
2453;DHT22;63678;47.994;7.854;2024-02-14T13:33:55;14.80;99.90
2453;DHT22;63678;47.994;7.854;2024-02-14T13:36:27;14.70;99.90
2453;DHT22;63678;47.994;7.854;2024-02-14T13:39:00;14.80;99.90
2453;DHT22;63678;47.994;7.854;2024-02-14T13:41:32;14.60;99.90
2453;DHT22;63678;47.994;7.854;2024-02-14T13:44:08;14.40;99.90
2453;DHT22;63678;47.994;7.854;2024-02-14T13:46:45;14.60;99.90
2453;DHT22;63678;47.994;7.854;2024-02-14T13:49:18;14.60;99.90
2453;DHT22;63678;47.994;7.854;2024-02-14T13:51:54;14.70;99.90
2453;DHT22;63678;47.994;7.854;2024-02-14T13:54:26;14.80;99.90
2453;DHT22;63678;47.994;7.854;2024-02-14T13:56:59;14.80;99.90
2453;DHT22;63678;47.994;7.854;2024-02-14T13:59:31;14.50;99.90
2453;DHT22;63678;47.994;7.854;2024-02-14T14:02:05;14.60;99.90
2453;DHT22;63678;47.994;7.854;2024-02-14T14:04:37;14.70;99.90
2453;DHT22;63678;47.994;7.854;2024-02-14T14:07:10;14.80;99.90
2453;DHT22;63678;47.994;7.854;2024-02-14T14:09:42;14.70;99.90
2453;DHT22;63678;47.994;7.854;2024-02-14T14:12:15;14.70;99.90
2453;DHT22;63678;47.994;7.854;2024-02-14T14:17:20;14.60;99.90
2453;DHT22;63678;47.994;7.854;2024-02-14T14:22:26;14.60;99.90
2453;DHT22;63678;47.994;7.854;2024-02-14T14:25:01;14.60;99.90
2453;DHT22;63678;47.994;7.854;2024-02-14T14:27:35;14.70;99.90
2453;DHT22;63678;47.994;7.854;2024-02-14T14:30:07;14.60;99.90
2453;DHT22;63678;47.994;7.854;2024-02-14T14:32:40;14.50;99.90
2453;DHT22;63678;47.994;7.854;2024-02-14T14:35:13;14.50;99.90
2453;DHT22;63678;47.994;7.854;2024-02-14T14:40:19;14.50;99.90
2453;DHT22;63678;47.994;7.854;2024-02-14T14:42:51;14.50;99.90
2453;DHT22;63678;47.994;7.854;2024-02-14T14:45:26;14.50;99.90
2453;DHT22;63678;47.994;7.854;2024-02-14T14:50:36;14.50;99.90
2453;DHT22;63678;47.994;7.854;2024-02-14T14:53:09;14.50;99.90
2453;DHT22;63678;47.994;7.854;2024-02-14T14:55:55;14.40;99.90
2453;DHT22;63678;47.994;7.854;2024-02-14T14:58:29;14.40;99.90
2453;DHT22;63678;47.994;7.854;2024-02-14T15:01:05;14.40;99.90
2453;DHT22;63678;47.994;7.854;2024-02-14T15:03:38;14.50;99.90
2453;DHT22;63678;47.994;7.854;2024-02-14T15:06:11;14.50;99.90
2453;DHT22;63678;47.994;7.854;2024-02-14T15:08:43;14.50;99.90
2453;DHT22;63678;47.994;7.854;2024-02-14T15:11:16;14.50;99.90
2453;DHT22;63678;47.994;7.854;2024-02-14T15:13:50;14.40;99.90
2453;DHT22;63678;47.994;7.854;2024-02-14T15:16:22;14.50;99.90
2453;DHT22;63678;47.994;7.854;2024-02-14T15:18:55;14.50;99.90
2453;DHT22;63678;47.994;7.854;2024-02-14T15:26:36;14.50;99.90
2453;DHT22;63678;47.994;7.854;2024-02-14T15:29:21;14.50;99.90
2453;DHT22;63678;47.994;7.854;2024-02-14T15:32:12;14.50;99.90
2453;DHT22;63678;47.994;7.854;2024-02-14T15:35:23;14.50;99.90
2453;DHT22;63678;47.994;7.854;2024-02-14T15:37:56;14.50;99.90
2453;DHT22;63678;47.994;7.854;2024-02-14T15:40:29;14.50;99.90
2453;DHT22;63678;47.994;7.854;2024-02-14T15:43:04;14.50;99.90
2453;DHT22;63678;47.994;7.854;2024-02-14T15:45:37;14.50;99.90
2453;DHT22;63678;47.994;7.854;2024-02-14T15:48:11;14.40;99.90
2453;DHT22;63678;47.994;7.854;2024-02-14T15:50:53;14.40;99.90
2453;DHT22;63678;47.994;7.854;2024-02-14T15:53:26;14.40;99.90
2453;DHT22;63678;47.994;7.854;2024-02-14T15:55:59;14.40;99.90
2453;DHT22;63678;47.994;7.854;2024-02-14T16:01:06;14.50;99.90
2453;DHT22;63678;47.994;7.854;2024-02-14T16:06:13;14.40;99.90
2453;DHT22;63678;47.994;7.854;2024-02-14T16:08:45;14.40;99.90
2453;DHT22;63678;47.994;7.854;2024-02-14T16:11:18;14.30;99.90
2453;DHT22;63678;47.994;7.854;2024-02-14T16:13:51;14.40;99.90
2453;DHT22;63678;47.994;7.854;2024-02-14T16:16:24;14.40;99.90
2453;DHT22;63678;47.994;7.854;2024-02-14T16:18:57;14.40;99.90
2453;DHT22;63678;47.994;7.854;2024-02-14T16:21:32;14.40;99.90
2453;DHT22;63678;47.994;7.854;2024-02-14T16:24:05;14.30;99.90
2453;DHT22;63678;47.994;7.854;2024-02-14T16:26:37;14.30;99.90
2453;DHT22;63678;47.994;7.854;2024-02-14T16:29:10;14.40;99.90
2453;DHT22;63678;47.994;7.854;2024-02-14T16:31:43;14.40;99.90
2453;DHT22;63678;47.994;7.854;2024-02-14T16:34:19;14.40;99.90
2453;DHT22;63678;47.994;7.854;2024-02-14T16:36:52;14.40;99.90
2453;DHT22;63678;47.994;7.854;2024-02-14T16:39:35;14.40;99.90
2453;DHT22;63678;47.994;7.854;2024-02-14T16:44:48;14.40;99.90
2453;DHT22;63678;47.994;7.854;2024-02-14T16:47:21;14.50;99.90
2453;DHT22;63678;47.994;7.854;2024-02-14T16:49:54;14.40;99.90
2453;DHT22;63678;47.994;7.854;2024-02-14T16:55:00;14.30;99.90
2453;DHT22;63678;47.994;7.854;2024-02-14T16:57:33;14.40;99.90
2453;DHT22;63678;47.994;7.854;2024-02-14T17:00:09;14.40;99.90
2453;DHT22;63678;47.994;7.854;2024-02-14T17:02:42;14.40;99.90
2453;DHT22;63678;47.994;7.854;2024-02-14T17:10:23;14.40;99.90
2453;DHT22;63678;47.994;7.854;2024-02-14T17:12:56;14.40;99.90
2453;DHT22;63678;47.994;7.854;2024-02-14T17:15:30;14.20;99.90
2453;DHT22;63678;47.994;7.854;2024-02-14T17:18:02;14.30;99.90
2453;DHT22;63678;47.994;7.854;2024-02-14T17:20:37;14.30;99.90
2453;DHT22;63678;47.994;7.854;2024-02-14T17:23:10;14.30;99.90
2453;DHT22;63678;47.994;7.854;2024-02-14T17:25:42;14.40;99.90
2453;DHT22;63678;47.994;7.854;2024-02-14T17:28:16;14.40;99.90
2453;DHT22;63678;47.994;7.854;2024-02-14T17:30:49;14.30;99.90
2453;DHT22;63678;47.994;7.854;2024-02-14T17:33:23;14.30;99.90
2453;DHT22;63678;47.994;7.854;2024-02-14T17:35:55;14.30;99.90
2453;DHT22;63678;47.994;7.854;2024-02-14T17:38:28;14.30;99.90
2453;DHT22;63678;47.994;7.854;2024-02-14T17:41:02;14.30;99.90
2453;DHT22;63678;47.994;7.854;2024-02-14T17:43:35;14.30;99.90
2453;DHT22;63678;47.994;7.854;2024-02-14T17:46:10;14.30;99.90
2453;DHT22;63678;47.994;7.854;2024-02-14T17:48:42;14.30;99.90
2453;DHT22;63678;47.994;7.854;2024-02-14T17:51:15;14.30;99.90
2453;DHT22;63678;47.994;7.854;2024-02-14T17:53:48;14.30;99.90
2453;DHT22;63678;47.994;7.854;2024-02-14T17:56:22;14.30;99.90
2453;DHT22;63678;47.994;7.854;2024-02-14T17:58:56;14.20;99.90
2453;DHT22;63678;47.994;7.854;2024-02-14T18:01:28;14.30;99.90
2453;DHT22;63678;47.994;7.854;2024-02-14T18:04:01;14.30;99.90
2453;DHT22;63678;47.994;7.854;2024-02-14T18:06:36;14.30;99.90
2453;DHT22;63678;47.994;7.854;2024-02-14T18:09:09;14.40;99.90
2453;DHT22;63678;47.994;7.854;2024-02-14T18:11:42;14.30;99.90
2453;DHT22;63678;47.994;7.854;2024-02-14T18:14:15;14.30;99.90
2453;DHT22;63678;47.994;7.854;2024-02-14T18:19:21;14.30;99.90
2453;DHT22;63678;47.994;7.854;2024-02-14T18:21:53;14.30;99.90
2453;DHT22;63678;47.994;7.854;2024-02-14T18:24:26;14.30;99.90
2453;DHT22;63678;47.994;7.854;2024-02-14T18:26:58;14.30;99.90
2453;DHT22;63678;47.994;7.854;2024-02-14T18:29:32;14.30;99.90
2453;DHT22;63678;47.994;7.854;2024-02-14T18:32:05;14.30;99.90
2453;DHT22;63678;47.994;7.854;2024-02-14T18:34:41;14.30;99.90
2453;DHT22;63678;47.994;7.854;2024-02-14T18:37:13;14.20;99.90
2453;DHT22;63678;47.994;7.854;2024-02-14T18:42:19;14.10;99.90